Time;durP1;ratioP1;P1;durP2;ratioP2;P2;SDS_P1;SDS_P2;PMS_P1;PMS_P2;Temp;Humidity;BMP_temperature;BMP_pressure;BME280_temperature;BME280_humidity;BME280_pressure;Samples;Min_cycle;Max_cycle;Signal;HPM_P1;HPM_P2
2021/12/19 00:00:42;;;;;;;5.10;2.75;;;;;;;;;;4990294;28;20047;-68
2021/12/19 00:03:32;;;;;;;6.63;2.78;;;;;;;;;;4991010;28;20483;-68
2021/12/19 00:08:49;;;;;;;4.03;2.38;;;;;;;;;;4991349;28;20478;-68
2021/12/19 00:11:17;;;;;;;5.10;2.42;;;;;;;;;;4990282;28;20332;-67
2021/12/19 00:13:42;;;;;;;4.10;2.60;;;;;;;;;;4989999;28;20371;-68
2021/12/19 00:16:08;;;;;;;4.47;2.22;;;;;;;;;;4955554;28;20422;-67
2021/12/19 00:18:34;;;;;;;4.57;2.30;;;;;;;;;;4990446;28;20416;-68
2021/12/19 00:20:59;;;;;;;5.45;2.70;;;;;;;;;;4988626;28;20455;-67
2021/12/19 00:23:26;;;;;;;5.57;2.53;;;;;;;;;;4990278;28;20466;-68
2021/12/19 00:25:51;;;;;;;5.90;2.30;;;;;;;;;;4989372;28;20470;-69
2021/12/19 00:28:17;;;;;;;3.80;2.58;;;;;;;;;;4989843;28;20424;-67
2021/12/19 00:30:42;;;;;;;3.42;1.88;;;;;;;;;;4989894;28;20471;-67
2021/12/19 00:33:07;;;;;;;5.55;2.20;;;;;;;;;;4989491;28;20486;-68
2021/12/19 00:35:33;;;;;;;6.72;2.33;;;;;;;;;;4990202;28;20029;-67
2021/12/19 00:37:58;;;;;;;5.15;2.10;;;;;;;;;;4988492;28;20408;-67
2021/12/19 00:40:25;;;;;;;4.32;2.22;;;;;;;;;;4989582;28;20466;-70
2021/12/19 00:43:01;;;;;;;3.80;1.83;;;;;;;;;;4987851;28;20083;-69
2021/12/19 00:45:31;;;;;;;5.50;2.03;;;;;;;;;;4991062;28;20378;-67
2021/12/19 00:47:56;;;;;;;2.83;1.67;;;;;;;;;;4989565;28;20051;-68
2021/12/19 00:50:22;;;;;;;3.70;2.25;;;;;;;;;;4989357;28;20033;-68
2021/12/19 00:52:47;;;;;;;3.88;2.63;;;;;;;;;;4989332;28;20385;-68
2021/12/19 00:55:17;;;;;;;4.97;2.13;;;;;;;;;;4987986;28;20343;-69
2021/12/19 00:57:43;;;;;;;3.35;1.98;;;;;;;;;;4989735;28;20421;-67
2021/12/19 01:00:14;;;;;;;3.60;1.70;;;;;;;;;;4987844;28;20451;-68
2021/12/19 01:02:40;;;;;;;3.28;2.00;;;;;;;;;;4963430;28;20429;-67
2021/12/19 01:05:07;;;;;;;7.55;2.65;;;;;;;;;;4951931;28;20325;-68
2021/12/19 01:07:32;;;;;;;3.65;1.88;;;;;;;;;;4970875;28;20432;-68
2021/12/19 01:09:58;;;;;;;3.40;1.63;;;;;;;;;;4969839;28;20427;-69
2021/12/19 01:12:24;;;;;;;3.88;1.92;;;;;;;;;;4952243;28;20341;-67
2021/12/19 01:14:50;;;;;;;5.05;2.08;;;;;;;;;;4970869;28;20428;-67
2021/12/19 01:17:15;;;;;;;4.05;2.00;;;;;;;;;;4951560;28;20529;-68
2021/12/19 01:19:41;;;;;;;2.83;1.98;;;;;;;;;;4969459;28;20551;-68
2021/12/19 01:22:06;;;;;;;3.20;2.17;;;;;;;;;;4951512;28;20479;-70
2021/12/19 01:24:32;;;;;;;3.85;2.17;;;;;;;;;;4970144;28;20450;-67
2021/12/19 01:26:58;;;;;;;2.75;1.48;;;;;;;;;;4951471;28;20306;-68
2021/12/19 01:29:23;;;;;;;2.40;1.80;;;;;;;;;;4969814;28;20508;-68
2021/12/19 01:31:48;;;;;;;4.22;2.00;;;;;;;;;;4951642;28;20393;-67
2021/12/19 01:34:14;;;;;;;1.38;1.15;;;;;;;;;;4969386;28;20535;-67
2021/12/19 01:36:40;;;;;;;3.05;1.60;;;;;;;;;;4968982;28;20379;-67
2021/12/19 01:39:06;;;;;;;4.03;1.73;;;;;;;;;;4952066;28;20355;-68
2021/12/19 01:41:32;;;;;;;4.10;1.77;;;;;;;;;;4969948;28;20081;-68
2021/12/19 01:43:57;;;;;;;2.88;1.80;;;;;;;;;;4969257;28;20463;-67
2021/12/19 01:46:22;;;;;;;3.03;1.60;;;;;;;;;;4970069;28;20464;-68
2021/12/19 01:48:48;;;;;;;1.92;1.55;;;;;;;;;;4951726;28;20330;-67
2021/12/19 01:51:13;;;;;;;3.33;1.88;;;;;;;;;;4968873;28;20433;-68
2021/12/19 01:53:38;;;;;;;0.98;0.88;;;;;;;;;;4951253;28;20030;-70
2021/12/19 01:56:05;;;;;;;3.13;1.90;;;;;;;;;;4968625;28;20384;-68
2021/12/19 01:58:31;;;;;;;2.17;1.25;;;;;;;;;;4951582;28;20470;-68
2021/12/19 02:00:57;;;;;;;2.58;1.35;;;;;;;;;;4951263;28;20037;-68
2021/12/19 02:03:24;;;;;;;3.25;1.35;;;;;;;;;;4969124;28;20310;-67
2021/12/19 02:05:50;;;;;;;2.30;1.50;;;;;;;;;;4951070;28;20348;-70
2021/12/19 02:08:16;;;;;;;2.60;1.88;;;;;;;;;;4951561;28;20387;-67
2021/12/19 02:10:42;;;;;;;1.17;1.05;;;;;;;;;;4951937;28;20387;-68
2021/12/19 02:13:10;;;;;;;2.55;1.45;;;;;;;;;;4969982;28;20033;-68
2021/12/19 02:15:36;;;;;;;1.40;1.10;;;;;;;;;;4951636;28;20025;-67
2021/12/19 02:18:08;;;;;;;1.38;1.20;;;;;;;;;;4968636;28;20423;-68
2021/12/19 02:20:41;;;;;;;1.67;1.20;;;;;;;;;;4969172;28;20421;-68
2021/12/19 02:23:09;;;;;;;4.32;1.67;;;;;;;;;;4967475;28;20387;-68
2021/12/19 02:25:34;;;;;;;1.38;0.90;;;;;;;;;;4951677;28;20368;-67
2021/12/19 02:28:01;;;;;;;1.63;1.05;;;;;;;;;;4972312;28;20112;-67
2021/12/19 02:30:27;;;;;;;2.67;1.00;;;;;;;;;;4954634;28;20510;-70
2021/12/19 02:32:52;;;;;;;2.25;1.60;;;;;;;;;;4972657;28;20571;-68
2021/12/19 02:35:26;;;;;;;2.42;1.45;;;;;;;;;;4972444;28;20475;-74
2021/12/19 02:48:30;;;;;;;1.10;1.00;;;;;;;;;;4958519;28;20517;-69
2021/12/19 02:50:56;;;;;;;2.50;1.20;;;;;;;;;;4972139;28;20331;-68
2021/12/19 02:53:32;;;;;;;2.22;1.23;;;;;;;;;;4972016;28;20321;-68
2021/12/19 02:55:59;;;;;;;1.48;1.13;;;;;;;;;;4972688;28;20495;-68
2021/12/19 02:58:25;;;;;;;2.50;1.10;;;;;;;;;;4971976;28;20417;-68
2021/12/19 03:00:50;;;;;;;1.63;0.98;;;;;;;;;;4954824;28;20332;-68
2021/12/19 03:03:16;;;;;;;1.75;1.40;;;;;;;;;;4971707;28;20368;-68
2021/12/19 03:05:42;;;;;;;1.25;0.77;;;;;;;;;;4954880;28;20341;-69
2021/12/19 03:08:09;;;;;;;2.17;0.93;;;;;;;;;;4954349;28;20029;-68
2021/12/19 03:18:14;;;;;;;1.52;1.02;;;;;;;;;;4971733;28;20392;-68
2021/12/19 03:20:41;;;;;;;3.20;1.00;;;;;;;;;;4953963;28;20495;-68
2021/12/19 03:23:08;;;;;;;2.40;0.90;;;;;;;;;;4971501;28;20376;-68
2021/12/19 03:25:34;;;;;;;2.55;1.17;;;;;;;;;;4953972;28;20368;-68
2021/12/19 03:28:01;;;;;;;0.75;0.70;;;;;;;;;;4972069;28;20052;-69
2021/12/19 03:30:27;;;;;;;1.48;1.10;;;;;;;;;;4971305;28;20432;-69
2021/12/19 03:32:52;;;;;;;1.00;0.90;;;;;;;;;;4971587;28;20325;-68
2021/12/19 03:35:18;;;;;;;1.77;1.00;;;;;;;;;;4971299;28;20314;-68
2021/12/19 03:37:43;;;;;;;1.23;0.90;;;;;;;;;;4953492;28;20497;-70
2021/12/19 03:40:12;;;;;;;0.98;0.88;;;;;;;;;;4971331;28;20567;-68
2021/12/19 03:42:46;;;;;;;2.63;0.75;;;;;;;;;;4953774;28;20384;-68
2021/12/19 03:45:15;;;;;;;1.52;1.00;;;;;;;;;;4970391;28;20068;-68
2021/12/19 03:47:42;;;;;;;2.63;1.02;;;;;;;;;;4953302;28;20334;-68
2021/12/19 03:50:10;;;;;;;1.77;1.17;;;;;;;;;;4953073;28;20384;-68
2021/12/19 03:52:36;;;;;;;1.83;1.05;;;;;;;;;;4953582;28;20026;-68
2021/12/19 03:55:03;;;;;;;2.35;1.20;;;;;;;;;;4953027;28;20448;-68
2021/12/19 03:57:28;;;;;;;1.15;1.00;;;;;;;;;;4969938;28;20339;-68
2021/12/19 03:59:53;;;;;;;2.22;0.93;;;;;;;;;;4971971;28;20051;-68
2021/12/19 04:02:25;;;;;;;2.25;1.02;;;;;;;;;;4971605;28;20524;-68
2021/12/19 04:04:52;;;;;;;2.00;1.20;;;;;;;;;;4953621;28;20376;-68
2021/12/19 04:07:18;;;;;;;2.13;1.30;;;;;;;;;;4953644;28;20522;-68
2021/12/19 04:09:43;;;;;;;1.05;0.95;;;;;;;;;;4952618;28;20459;-68
2021/12/19 04:12:09;;;;;;;4.05;1.40;;;;;;;;;;4970672;28;20321;-68
2021/12/19 04:14:35;;;;;;;1.88;1.30;;;;;;;;;;4969955;28;20404;-68
2021/12/19 04:17:01;;;;;;;1.70;1.17;;;;;;;;;;4952409;28;20419;-68
2021/12/19 04:19:26;;;;;;;2.05;1.10;;;;;;;;;;4970557;28;20092;-69
2021/12/19 04:21:52;;;;;;;2.03;1.08;;;;;;;;;;4970371;28;20029;-69
2021/12/19 04:24:17;;;;;;;1.25;0.98;;;;;;;;;;4952022;28;20511;-68
2021/12/19 04:26:42;;;;;;;3.13;1.75;;;;;;;;;;4970205;28;20384;-68
2021/12/19 04:29:08;;;;;;;2.10;1.30;;;;;;;;;;4969986;28;20444;-68
2021/12/19 04:31:33;;;;;;;1.80;1.17;;;;;;;;;;4970248;28;20328;-68
2021/12/19 04:33:59;;;;;;;2.08;1.42;;;;;;;;;;4969764;28;20523;-68
2021/12/19 04:36:31;;;;;;;4.57;1.60;;;;;;;;;;4969056;28;20099;-68
2021/12/19 04:44:37;;;;;;;3.00;1.90;;;;;;;;;;4968754;28;20204;-68
2021/12/19 04:51:03;;;;;;;3.17;2.47;;;;;;;;;;4968658;28;20543;-68
2021/12/19 05:00:17;;;;;;;4.07;2.13;;;;;;;;;;4970295;28;20329;-68
2021/12/19 05:02:57;;;;;;;2.90;1.85;;;;;;;;;;4952434;28;20080;-68
2021/12/19 05:16:19;;;;;;;3.63;1.83;;;;;;;;;;4969302;28;20489;-68
2021/12/19 05:18:46;;;;;;;5.38;2.17;;;;;;;;;;4970744;28;20451;-68
2021/12/19 05:21:17;;;;;;;2.78;1.92;;;;;;;;;;4969221;28;20371;-68
2021/12/19 05:26:12;;;;;;;3.30;2.05;;;;;;;;;;4950981;28;20465;-68
2021/12/19 05:28:37;;;;;;;4.07;2.63;;;;;;;;;;4969658;28;20339;-68
2021/12/19 05:31:03;;;;;;;4.55;2.40;;;;;;;;;;4968162;28;20359;-70
2021/12/19 05:33:29;;;;;;;3.45;2.17;;;;;;;;;;4951751;28;20449;-68
2021/12/19 05:46:34;;;;;;;6.45;2.50;;;;;;;;;;4953161;28;20472;-68
2021/12/19 05:48:59;;;;;;;4.18;2.38;;;;;;;;;;4968940;28;20491;-71
2021/12/19 05:51:25;;;;;;;3.95;2.55;;;;;;;;;;4968616;28;20475;-68
2021/12/19 05:53:50;;;;;;;3.28;2.30;;;;;;;;;;4970642;28;20047;-68
2021/12/19 05:56:15;;;;;;;4.40;2.63;;;;;;;;;;4968726;28;20559;-68
2021/12/19 05:58:41;;;;;;;5.45;2.63;;;;;;;;;;4950474;28;20038;-68
2021/12/19 06:01:06;;;;;;;3.10;2.30;;;;;;;;;;4972339;28;20345;-68
2021/12/19 06:03:32;;;;;;;3.15;2.45;;;;;;;;;;4972015;28;20429;-68
2021/12/19 06:05:57;;;;;;;3.17;2.08;;;;;;;;;;4972924;28;20029;-68
2021/12/19 06:08:22;;;;;;;3.42;2.60;;;;;;;;;;4971831;28;20502;-68
2021/12/19 06:10:48;;;;;;;4.65;2.92;;;;;;;;;;4955082;28;20432;-68
2021/12/19 06:13:13;;;;;;;3.80;2.30;;;;;;;;;;4972072;28;20087;-68
2021/12/19 06:15:38;;;;;;;5.80;3.17;;;;;;;;;;4954272;28;20383;-68
2021/12/19 06:18:04;;;;;;;4.72;2.97;;;;;;;;;;4954273;28;20507;-68
2021/12/19 06:20:31;;;;;;;4.80;2.90;;;;;;;;;;4972258;28;20340;-68
2021/12/19 06:22:57;;;;;;;3.45;2.45;;;;;;;;;;4972845;28;20441;-68
2021/12/19 06:25:22;;;;;;;4.75;2.38;;;;;;;;;;4955042;28;20401;-68
2021/12/19 06:27:47;;;;;;;5.32;3.38;;;;;;;;;;4972194;28;20119;-68
2021/12/19 06:30:13;;;;;;;6.30;3.35;;;;;;;;;;4972122;28;20456;-68
2021/12/19 06:32:38;;;;;;;4.82;2.85;;;;;;;;;;4971645;28;20479;-68
2021/12/19 06:35:08;;;;;;;5.20;2.47;;;;;;;;;;4971577;28;20029;-68
2021/12/19 06:37:38;;;;;;;4.70;2.90;;;;;;;;;;4972096;28;20384;-68
2021/12/19 06:40:05;;;;;;;5.80;2.72;;;;;;;;;;4971913;28;20380;-68
2021/12/19 06:42:31;;;;;;;6.93;2.95;;;;;;;;;;4971867;28;20411;-68
2021/12/19 06:44:56;;;;;;;5.40;3.00;;;;;;;;;;4971568;28;20476;-68
2021/12/19 06:47:21;;;;;;;4.68;3.08;;;;;;;;;;4969846;28;20440;-68
2021/12/19 06:49:47;;;;;;;3.63;2.42;;;;;;;;;;4971213;28;20472;-68
2021/12/19 06:52:13;;;;;;;3.45;2.10;;;;;;;;;;4971744;28;20359;-68
2021/12/19 06:54:38;;;;;;;5.43;2.25;;;;;;;;;;4971530;28;20140;-68
2021/12/19 06:57:03;;;;;;;4.57;2.45;;;;;;;;;;4953572;28;20099;-68
2021/12/19 06:59:29;;;;;;;4.20;2.42;;;;;;;;;;4953478;28;20440;-68
2021/12/19 07:01:54;;;;;;;3.15;2.20;;;;;;;;;;4972233;28;20436;-68
2021/12/19 07:04:19;;;;;;;4.40;2.55;;;;;;;;;;4972745;28;20543;-69
2021/12/19 07:06:45;;;;;;;3.38;2.20;;;;;;;;;;4971267;28;20109;-68
2021/12/19 07:09:10;;;;;;;5.05;2.78;;;;;;;;;;4972248;28;20321;-68
2021/12/19 07:11:35;;;;;;;3.80;2.22;;;;;;;;;;4953433;28;20460;-68
2021/12/19 07:14:01;;;;;;;4.57;2.70;;;;;;;;;;4971615;28;20471;-68
2021/12/19 07:16:26;;;;;;;4.60;2.67;;;;;;;;;;4970958;28;20522;-68
2021/12/19 07:18:51;;;;;;;4.22;2.17;;;;;;;;;;4971205;28;20428;-68
2021/12/19 07:21:17;;;;;;;2.97;2.10;;;;;;;;;;4970605;28;20484;-68
2021/12/19 07:23:42;;;;;;;3.92;2.10;;;;;;;;;;4970644;28;20448;-68
2021/12/19 07:26:08;;;;;;;2.90;1.90;;;;;;;;;;4970403;28;20452;-69
2021/12/19 07:28:34;;;;;;;3.00;2.05;;;;;;;;;;4970757;28;20436;-69
2021/12/19 07:30:59;;;;;;;3.50;2.17;;;;;;;;;;4952858;28;20441;-68
2021/12/19 07:33:24;;;;;;;6.22;2.30;;;;;;;;;;4952612;28;20400;-68
2021/12/19 07:35:50;;;;;;;4.30;2.60;;;;;;;;;;4970654;28;20395;-70
2021/12/19 07:38:25;;;;;;;4.65;2.80;;;;;;;;;;4970832;28;20425;-68
2021/12/19 07:40:50;;;;;;;5.68;2.50;;;;;;;;;;4954025;28;20522;-69
2021/12/19 07:43:16;;;;;;;4.00;2.42;;;;;;;;;;4968150;28;20551;-69
2021/12/19 07:45:42;;;;;;;4.07;2.25;;;;;;;;;;4953297;28;20340;-68
2021/12/19 07:48:08;;;;;;;6.05;2.83;;;;;;;;;;4952609;28;20094;-68
2021/12/19 07:50:35;;;;;;;7.75;3.72;;;;;;;;;;4953304;28;20503;-68
2021/12/19 07:53:01;;;;;;;8.15;3.55;;;;;;;;;;4970938;28;20420;-68
2021/12/19 07:55:27;;;;;;;6.60;3.22;;;;;;;;;;4970326;28;20048;-70
2021/12/19 07:57:52;;;;;;;6.97;3.60;;;;;;;;;;4952956;28;20021;-68
2021/12/19 08:00:19;;;;;;;7.22;3.05;;;;;;;;;;4970799;28;20420;-69
2021/12/19 08:02:45;;;;;;;5.18;2.60;;;;;;;;;;4953559;28;20336;-68
2021/12/19 08:05:11;;;;;;;7.47;3.60;;;;;;;;;;4952658;28;20424;-68
2021/12/19 08:07:38;;;;;;;6.40;3.30;;;;;;;;;;4953692;28;20474;-69
2021/12/19 08:12:33;;;;;;;5.38;3.10;;;;;;;;;;4970988;28;20460;-69
2021/12/19 08:14:58;;;;;;;12.95;3.53;;;;;;;;;;4953195;28;20478;-68
2021/12/19 08:17:24;;;;;;;5.75;3.17;;;;;;;;;;4971422;28;20029;-68
2021/12/19 08:19:49;;;;;;;5.03;2.72;;;;;;;;;;4971523;28;20437;-68
2021/12/19 08:22:15;;;;;;;7.40;3.05;;;;;;;;;;4952962;28;20033;-68
2021/12/19 08:24:41;;;;;;;7.18;3.17;;;;;;;;;;4969860;28;20452;-68
2021/12/19 08:27:07;;;;;;;4.53;2.65;;;;;;;;;;4953803;28;20463;-68
2021/12/19 08:29:32;;;;;;;5.32;3.35;;;;;;;;;;4970749;28;20373;-68
2021/12/19 08:31:57;;;;;;;6.22;2.85;;;;;;;;;;4952479;28;20424;-68
2021/12/19 08:34:24;;;;;;;7.53;3.17;;;;;;;;;;4952443;28;20431;-68
2021/12/19 08:36:49;;;;;;;4.05;2.33;;;;;;;;;;4970268;28;20383;-68
2021/12/19 08:39:15;;;;;;;4.95;2.97;;;;;;;;;;4971989;28;20373;-68
2021/12/19 08:41:40;;;;;;;7.60;2.75;;;;;;;;;;4952353;28;20407;-69
2021/12/19 08:44:06;;;;;;;6.25;2.92;;;;;;;;;;4968980;28;20073;-69
2021/12/19 08:46:35;;;;;;;5.65;2.47;;;;;;;;;;4952463;28;20416;-68
2021/12/19 08:49:02;;;;;;;;;;;;;;;;;;4972151;28;20080;-68
2021/12/19 08:51:27;;;;;;;5.55;2.10;;;;;;;;;;4971340;28;20244;-68
2021/12/19 08:53:52;;;;;;;6.68;2.60;;;;;;;;;;4952286;28;20047;-68
2021/12/19 08:56:18;;;;;;;6.50;2.97;;;;;;;;;;4971690;28;20387;-68
2021/12/19 08:58:43;;;;;;;5.28;2.30;;;;;;;;;;4969735;28;20112;-70
2021/12/19 09:01:09;;;;;;;4.32;2.13;;;;;;;;;;4969890;28;20459;-68
2021/12/19 09:03:34;;;;;;;3.97;2.53;;;;;;;;;;4969822;28;20448;-68
2021/12/19 09:06:00;;;;;;;4.53;2.25;;;;;;;;;;4970438;28;20112;-68
2021/12/19 09:08:26;;;;;;;5.68;3.03;;;;;;;;;;4951795;28;20494;-68
2021/12/19 09:10:53;;;;;;;5.35;2.60;;;;;;;;;;4969502;28;20429;-68
2021/12/19 09:13:18;;;;;;;4.05;2.15;;;;;;;;;;4951826;28;20388;-68
2021/12/19 09:15:43;;;;;;;4.68;2.67;;;;;;;;;;4969360;28;20341;-68
2021/12/19 09:18:09;;;;;;;5.45;2.33;;;;;;;;;;4951678;28;20356;-68
2021/12/19 09:20:34;;;;;;;4.70;2.47;;;;;;;;;;4968824;28;20512;-68
2021/12/19 09:22:59;;;;;;;4.38;2.88;;;;;;;;;;4969119;28;20103;-68
2021/12/19 09:25:25;;;;;;;5.57;3.65;;;;;;;;;;4968952;28;20179;-68
2021/12/19 09:27:50;;;;;;;3.55;2.25;;;;;;;;;;4969356;28;20118;-68
2021/12/19 09:30:16;;;;;;;4.75;2.38;;;;;;;;;;4969029;28;20432;-69
2021/12/19 09:32:41;;;;;;;6.63;2.53;;;;;;;;;;4969184;28;20402;-67
2021/12/19 09:35:07;;;;;;;8.88;2.80;;;;;;;;;;4951538;28;20356;-68
2021/12/19 09:37:35;;;;;;;3.22;2.13;;;;;;;;;;4971046;28;20360;-68
2021/12/19 09:40:04;;;;;;;12.02;2.40;;;;;;;;;;4951556;28;20057;-67
2021/12/19 09:42:34;;;;;;;7.22;2.60;;;;;;;;;;4950876;28;20057;-68
2021/12/19 09:45:01;;;;;;;5.72;2.67;;;;;;;;;;4955509;28;20583;-67
2021/12/19 09:47:26;;;;;;;6.95;3.20;;;;;;;;;;4946736;28;20033;-68
2021/12/19 09:49:53;;;;;;;4.22;2.10;;;;;;;;;;4950627;28;20033;-68
2021/12/19 09:52:18;;;;;;;3.17;1.95;;;;;;;;;;4949468;28;20491;-69
2021/12/19 09:54:44;;;;;;;5.47;2.53;;;;;;;;;;4950083;28;20461;-69
2021/12/19 09:57:09;;;;;;;8.80;3.47;;;;;;;;;;4947703;28;20519;-70
2021/12/19 09:59:34;;;;;;;10.27;3.97;;;;;;;;;;4950213;28;20034;-69
2021/12/19 10:02:00;;;;;;;6.38;2.95;;;;;;;;;;4963882;28;20334;-68
2021/12/19 10:04:34;;;;;;;10.48;3.15;;;;;;;;;;4947594;28;20358;-68
2021/12/19 10:07:15;;;;;;;4.65;2.50;;;;;;;;;;4948797;28;20049;-68
2021/12/19 10:09:55;;;;;;;9.52;2.60;;;;;;;;;;4963760;28;20433;-68
2021/12/19 10:12:37;;;;;;;8.85;3.08;;;;;;;;;;4949460;28;20468;-68
2021/12/19 10:15:11;;;;;;;8.07;3.33;;;;;;;;;;4933081;28;20499;-69
2021/12/19 10:17:38;;;;;;;7.85;2.58;;;;;;;;;;4963641;28;20353;-68
2021/12/19 10:20:07;;;;;;;6.90;3.22;;;;;;;;;;4948896;28;20427;-69
2021/12/19 10:22:35;;;;;;;;;;;;;;;;;;4950448;28;20026;-68
2021/12/19 10:25:22;;;;;;;6.13;3.22;;;;;;;;;;4948930;28;20335;-68
2021/12/19 10:28:04;;;;;;;10.35;4.03;;;;;;;;;;4949116;28;20391;-68
2021/12/19 10:30:36;;;;;;;12.32;3.20;;;;;;;;;;4949483;28;20525;-68
2021/12/19 10:33:11;;;;;;;6.13;2.83;;;;;;;;;;4963802;28;20425;-68
2021/12/19 10:35:41;;;;;;;7.30;3.28;;;;;;;;;;4951240;28;20422;-68
2021/12/19 10:38:18;;;;;;;10.25;3.67;;;;;;;;;;4964048;28;20045;-69
2021/12/19 10:40:49;;;;;;;7.50;3.70;;;;;;;;;;4948404;28;20532;-68
2021/12/19 10:43:16;;;;;;;6.22;2.78;;;;;;;;;;4967712;28;20429;-68
2021/12/19 10:45:54;;;;;;;14.27;4.28;;;;;;;;;;4986326;28;20065;-69
2021/12/19 10:48:25;;;;;;;7.63;3.35;;;;;;;;;;4972952;28;20410;-69
2021/12/19 10:50:53;;;;;;;11.77;3.92;;;;;;;;;;4992057;28;20353;-68
2021/12/19 10:53:24;;;;;;;13.30;3.65;;;;;;;;;;4973289;28;20324;-68
2021/12/19 10:55:50;;;;;;;8.30;3.75;;;;;;;;;;4992049;28;20451;-68
2021/12/19 10:58:24;;;;;;;12.88;4.10;;;;;;;;;;4973000;28;20021;-68
2021/12/19 11:01:08;;;;;;;8.10;3.88;;;;;;;;;;4992748;28;20438;-68
2021/12/19 11:03:49;;;;;;;11.25;4.45;;;;;;;;;;4989427;28;20468;-68
2021/12/19 11:06:16;;;;;;;11.88;4.20;;;;;;;;;;4989911;28;20436;-68
2021/12/19 11:08:43;;;;;;;8.30;3.80;;;;;;;;;;4989258;28;20052;-68
2021/12/19 11:11:09;;;;;;;9.52;4.10;;;;;;;;;;4990626;28;20329;-68
2021/12/19 11:13:35;;;;;;;8.57;3.45;;;;;;;;;;4991232;28;20048;-68
2021/12/19 11:16:00;;;;;;;10.18;4.45;;;;;;;;;;4990727;28;20447;-68
2021/12/19 11:18:26;;;;;;;10.85;3.78;;;;;;;;;;4989119;28;20428;-68
2021/12/19 11:20:53;;;;;;;11.60;3.55;;;;;;;;;;4989596;28;20343;-68
2021/12/19 11:23:18;;;;;;;9.45;3.05;;;;;;;;;;4990600;28;20517;-68
2021/12/19 11:25:44;;;;;;;8.77;3.55;;;;;;;;;;4990222;28;20313;-68
2021/12/19 11:28:10;;;;;;;7.05;3.60;;;;;;;;;;4989742;28;20344;-68
2021/12/19 11:30:36;;;;;;;9.73;4.35;;;;;;;;;;4989322;28;20448;-68
2021/12/19 11:33:23;;;;;;;7.70;3.55;;;;;;;;;;4988988;28;20467;-68
2021/12/19 11:35:50;;;;;;;6.00;3.40;;;;;;;;;;4989905;28;20339;-68
2021/12/19 11:38:21;;;;;;;7.20;3.83;;;;;;;;;;4988879;28;20051;-68
2021/12/19 11:40:47;;;;;;;10.60;3.75;;;;;;;;;;4988669;28;20386;-68
2021/12/19 11:43:13;;;;;;;6.25;2.67;;;;;;;;;;4971842;28;20344;-70
2021/12/19 11:45:43;;;;;;;6.97;3.70;;;;;;;;;;4989830;28;20590;-68
2021/12/19 11:48:22;;;;;;;9.60;3.38;;;;;;;;;;4972036;28;20342;-68
2021/12/19 11:50:59;;;;;;;6.35;3.25;;;;;;;;;;4990096;28;20098;-68
2021/12/19 11:53:28;;;;;;;10.07;3.42;;;;;;;;;;4988904;28;20348;-68
2021/12/19 11:56:08;;;;;;;8.50;3.50;;;;;;;;;;4972560;28;20374;-68
2021/12/19 11:58:49;;;;;;;8.45;2.65;;;;;;;;;;4989824;28;20451;-68
2021/12/19 12:01:27;;;;;;;5.93;2.88;;;;;;;;;;4971942;28;20033;-68
2021/12/19 12:03:53;;;;;;;7.78;2.85;;;;;;;;;;4989112;28;20440;-68
2021/12/19 12:06:21;;;;;;;5.80;3.55;;;;;;;;;;4988429;28;20384;-69
2021/12/19 12:09:08;;;;;;;6.57;2.63;;;;;;;;;;4989826;28;20525;-68
2021/12/19 12:11:36;;;;;;;11.13;3.08;;;;;;;;;;4990070;28;20451;-68
2021/12/19 12:14:20;;;;;;;8.50;3.45;;;;;;;;;;4988019;28;20522;-68
2021/12/19 12:16:54;;;;;;;5.97;2.90;;;;;;;;;;4990542;28;20328;-68
2021/12/19 12:19:43;;;;;;;7.53;3.38;;;;;;;;;;4988253;28;20435;-68
2021/12/19 12:22:24;;;;;;;8.45;3.25;;;;;;;;;;4988056;28;20447;-68
2021/12/19 12:25:09;;;;;;;6.57;2.88;;;;;;;;;;4989209;28;20373;-68
2021/12/19 12:27:39;;;;;;;8.23;3.28;;;;;;;;;;4987731;28;20020;-68
2021/12/19 12:30:07;;;;;;;7.80;2.85;;;;;;;;;;4989311;28;20344;-68
2021/12/19 12:32:32;;;;;;;7.35;2.75;;;;;;;;;;4990821;28;20379;-68
2021/12/19 12:34:57;;;;;;;5.20;3.13;;;;;;;;;;4989263;28;20099;-71
2021/12/19 12:37:23;;;;;;;6.38;2.25;;;;;;;;;;4989209;28;20035;-68
2021/12/19 12:40:17;;;;;;;7.78;2.67;;;;;;;;;;4987592;28;20413;-68
2021/12/19 12:42:59;;;;;;;4.88;2.63;;;;;;;;;;4987906;28;20029;-68
2021/12/19 12:45:25;;;;;;;7.40;3.33;;;;;;;;;;4990074;28;20499;-68
2021/12/19 12:47:51;;;;;;;6.95;2.65;;;;;;;;;;4971099;28;20371;-68
2021/12/19 12:50:16;;;;;;;4.72;2.60;;;;;;;;;;4972134;28;20126;-68
2021/12/19 12:52:42;;;;;;;7.65;3.00;;;;;;;;;;4970794;28;20047;-68
2021/12/19 12:55:07;;;;;;;5.68;2.60;;;;;;;;;;4970880;28;20391;-68
2021/12/19 12:57:35;;;;;;;5.22;2.60;;;;;;;;;;4987325;28;20348;-68
2021/12/19 13:00:01;;;;;;;6.43;2.85;;;;;;;;;;4988170;28;20359;-68
2021/12/19 13:02:40;;;;;;;7.63;3.67;;;;;;;;;;4987311;28;20348;-68
2021/12/19 13:05:13;;;;;;;5.10;2.50;;;;;;;;;;4988538;28;20347;-69
2021/12/19 13:07:38;;;;;;;5.25;2.80;;;;;;;;;;4989148;28;20040;-68
2021/12/19 13:10:05;;;;;;;5.20;2.85;;;;;;;;;;4988005;28;20459;-68
2021/12/19 13:12:32;;;;;;;4.93;2.30;;;;;;;;;;4986925;28;20029;-68
2021/12/19 13:15:04;;;;;;;5.25;2.50;;;;;;;;;;4990110;28;20304;-68
2021/12/19 13:17:33;;;;;;;6.32;2.92;;;;;;;;;;4988470;28;20434;-68
2021/12/19 13:20:02;;;;;;;6.05;2.80;;;;;;;;;;4989254;28;20416;-68
2021/12/19 13:22:29;;;;;;;8.97;3.50;;;;;;;;;;4986834;28;20088;-68
2021/12/19 13:24:57;;;;;;;8.85;3.47;;;;;;;;;;4986981;28;20505;-70
2021/12/19 13:27:31;;;;;;;7.43;3.40;;;;;;;;;;4986746;28;20447;-68
2021/12/19 13:30:12;;;;;;;7.05;3.25;;;;;;;;;;4988900;28;20052;-69
2021/12/19 13:32:40;;;;;;;6.10;2.50;;;;;;;;;;4986702;28;20506;-68
2021/12/19 13:35:28;;;;;;;6.53;2.90;;;;;;;;;;4988626;28;20344;-69
2021/12/19 13:37:57;;;;;;;7.80;3.45;;;;;;;;;;4988923;28;20037;-68
2021/12/19 13:40:23;;;;;;;;;;;;;;;;;;4988702;28;20422;-68
2021/12/19 13:42:55;;;;;;;7.47;3.20;;;;;;;;;;4988212;28;20330;-68
2021/12/19 13:45:25;;;;;;;5.97;2.80;;;;;;;;;;4966616;28;20585;-68
2021/12/19 13:47:50;;;;;;;;;;;;;;;;;;4968843;28;20365;-68
2021/12/19 13:50:16;;;;;;;7.20;2.17;;;;;;;;;;4983508;28;20287;-68
2021/12/19 13:52:41;;;;;;;8.77;3.22;;;;;;;;;;4966865;28;20044;-68
2021/12/19 13:55:09;;;;;;;4.22;2.17;;;;;;;;;;4968601;28;20441;-68
2021/12/19 13:57:35;;;;;;;6.72;3.03;;;;;;;;;;4968616;28;20440;-68
2021/12/19 14:00:05;;;;;;;5.90;2.88;;;;;;;;;;4969503;28;20421;-68
2021/12/19 14:02:38;;;;;;;7.30;3.33;;;;;;;;;;4967126;28;20363;-68
2021/12/19 14:05:31;;;;;;;7.32;3.33;;;;;;;;;;4968289;28;20437;-68
2021/12/19 14:07:57;;;;;;;7.10;3.10;;;;;;;;;;4969428;28;20444;-68
2021/12/19 14:10:23;;;;;;;5.55;3.03;;;;;;;;;;4969836;28;20407;-68
2021/12/19 14:13:14;;;;;;;4.22;2.38;;;;;;;;;;4983323;28;20470;-71
2021/12/19 14:15:49;;;;;;;8.02;3.25;;;;;;;;;;4970058;28;20347;-68
2021/12/19 14:18:25;;;;;;;8.73;3.60;;;;;;;;;;4968215;28;20460;-69
2021/12/19 14:20:51;;;;;;;8.25;2.92;;;;;;;;;;4984909;28;20333;-68
2021/12/19 14:23:17;;;;;;;8.77;3.83;;;;;;;;;;4972005;28;20025;-68
2021/12/19 14:25:42;;;;;;;6.72;3.42;;;;;;;;;;4987038;28;20037;-69
2021/12/19 14:28:26;;;;;;;6.53;3.17;;;;;;;;;;4987879;28;20455;-68
2021/12/19 14:30:56;;;;;;;8.52;3.45;;;;;;;;;;4971616;28;20459;-70
2021/12/19 14:33:29;;;;;;;6.53;4.00;;;;;;;;;;4970843;28;20333;-68
2021/12/19 14:35:54;;;;;;;7.90;2.95;;;;;;;;;;4972073;28;20367;-69
2021/12/19 14:38:22;;;;;;;7.20;3.13;;;;;;;;;;4971977;28;20076;-68
2021/12/19 14:40:48;;;;;;;7.47;3.40;;;;;;;;;;4970690;28;20448;-68
2021/12/19 14:43:18;;;;;;;8.68;3.50;;;;;;;;;;4973060;28;20417;-68
2021/12/19 14:45:52;;;;;;;7.95;3.53;;;;;;;;;;4992945;28;20051;-68
2021/12/19 14:48:41;;;;;;;6.88;3.25;;;;;;;;;;4991573;28;20340;-68
2021/12/19 14:51:14;;;;;;;8.73;3.38;;;;;;;;;;4991695;28;20509;-68
2021/12/19 14:53:45;;;;;;;6.30;2.80;;;;;;;;;;4974457;28;20483;-68
2021/12/19 14:56:14;;;;;;;8.40;3.55;;;;;;;;;;4990427;28;20371;-70
2021/12/19 14:58:46;;;;;;;7.97;3.30;;;;;;;;;;4990431;28;20439;-68
2021/12/19 15:01:15;;;;;;;7.05;3.20;;;;;;;;;;4973946;28;20343;-68
2021/12/19 15:03:49;;;;;;;11.52;3.92;;;;;;;;;;4989893;28;20417;-68
2021/12/19 15:06:19;;;;;;;8.77;3.72;;;;;;;;;;4991091;28;20317;-68
2021/12/19 15:08:45;;;;;;;9.55;3.45;;;;;;;;;;4989853;28;20336;-68
2021/12/19 15:11:10;;;;;;;9.68;3.30;;;;;;;;;;4990741;28;20344;-68
2021/12/19 15:13:36;;;;;;;9.88;3.97;;;;;;;;;;4992854;28;20423;-68
2021/12/19 15:16:02;;;;;;;9.05;3.53;;;;;;;;;;4973020;28;20440;-68
2021/12/19 15:18:29;;;;;;;7.45;3.58;;;;;;;;;;4989855;28;20055;-68
2021/12/19 15:20:54;;;;;;;7.80;3.80;;;;;;;;;;4973670;28;20548;-68
2021/12/19 15:23:19;;;;;;;7.63;2.95;;;;;;;;;;4990276;28;20309;-68
2021/12/19 15:25:46;;;;;;;9.48;3.75;;;;;;;;;;4991181;28;20511;-68
2021/12/19 15:28:13;;;;;;;6.20;2.63;;;;;;;;;;4989946;28;20313;-68
2021/12/19 15:30:38;;;;;;;9.18;3.13;;;;;;;;;;4973386;28;20451;-72
2021/12/19 15:33:04;;;;;;;7.35;2.92;;;;;;;;;;4990796;28;20439;-68
2021/12/19 15:35:31;;;;;;;5.97;3.03;;;;;;;;;;4990661;28;20454;-68
2021/12/19 15:37:56;;;;;;;9.23;3.72;;;;;;;;;;4992331;28;20052;-68
2021/12/19 15:40:22;;;;;;;6.63;2.47;;;;;;;;;;4990416;28;20021;-68
2021/12/19 15:42:47;;;;;;;4.78;2.80;;;;;;;;;;4990635;28;20120;-68
2021/12/19 15:45:13;;;;;;;12.40;3.38;;;;;;;;;;4989654;28;20523;-68
2021/12/19 15:47:38;;;;;;;7.30;3.35;;;;;;;;;;4990476;28;20444;-68
2021/12/19 15:50:05;;;;;;;7.63;3.20;;;;;;;;;;4990358;28;20471;-68
2021/12/19 15:52:30;;;;;;;7.07;2.80;;;;;;;;;;4990413;28;20447;-68